sensor_id;sensor_type;location;lat;lon;timestamp;pressure;altitude;pressure_sealevel;temperature;humidity
55373;BME280;41249;47.838;16.490;2022-10-17T00:00:16;100303.16;;;8.02;80.67
55373;BME280;41249;47.838;16.490;2022-10-17T00:02:43;100302.97;;;7.94;80.77
55373;BME280;41249;47.838;16.490;2022-10-17T00:05:09;100307.88;;;7.85;80.90
55373;BME280;41249;47.838;16.490;2022-10-17T00:07:37;100303.31;;;7.77;80.37
55373;BME280;41249;47.838;16.490;2022-10-17T00:10:05;100305.81;;;7.82;81.64
55373;BME280;41249;47.838;16.490;2022-10-17T00:12:33;100292.44;;;7.84;81.20
55373;BME280;41249;47.838;16.490;2022-10-17T00:15:02;100296.19;;;7.92;81.95
55373;BME280;41249;47.838;16.490;2022-10-17T00:17:30;100293.88;;;7.94;81.35
55373;BME280;41249;47.838;16.490;2022-10-17T00:20:00;100294.50;;;8.03;80.89
55373;BME280;41249;47.838;16.490;2022-10-17T00:22:27;100286.06;;;8.12;81.00
55373;BME280;41249;47.838;16.490;2022-10-17T00:24:53;100297.38;;;8.07;80.77
55373;BME280;41249;47.838;16.490;2022-10-17T00:27:20;100294.94;;;7.89;80.73
55373;BME280;41249;47.838;16.490;2022-10-17T00:29:48;100288.34;;;7.78;81.41
55373;BME280;41249;47.838;16.490;2022-10-17T00:32:15;100289.59;;;7.81;82.10
55373;BME280;41249;47.838;16.490;2022-10-17T00:34:42;100302.16;;;7.94;81.35
55373;BME280;41249;47.838;16.490;2022-10-17T00:37:09;100294.22;;;7.92;81.34
55373;BME280;41249;47.838;16.490;2022-10-17T00:39:35;100292.63;;;7.91;81.11
55373;BME280;41249;47.838;16.490;2022-10-17T00:42:02;100295.59;;;7.99;81.52
55373;BME280;41249;47.838;16.490;2022-10-17T00:46:57;100287.19;;;7.95;81.68
55373;BME280;41249;47.838;16.490;2022-10-17T00:49:26;100291.91;;;7.94;81.67
55373;BME280;41249;47.838;16.490;2022-10-17T00:51:57;100287.19;;;7.95;81.57
55373;BME280;41249;47.838;16.490;2022-10-17T00:54:30;100289.50;;;7.93;81.13
55373;BME280;41249;47.838;16.490;2022-10-17T00:56:59;100286.38;;;7.94;81.77
55373;BME280;41249;47.838;16.490;2022-10-17T00:59:26;100291.31;;;8.01;81.74
55373;BME280;41249;47.838;16.490;2022-10-17T01:02:04;100287.03;;;8.04;80.98
55373;BME280;41249;47.838;16.490;2022-10-17T01:04:31;100285.69;;;7.98;80.77
55373;BME280;41249;47.838;16.490;2022-10-17T01:06:58;100279.78;;;7.83;81.50
55373;BME280;41249;47.838;16.490;2022-10-17T01:09:25;100278.25;;;7.70;81.74
55373;BME280;41249;47.838;16.490;2022-10-17T01:11:57;100283.94;;;7.62;81.57
55373;BME280;41249;47.838;16.490;2022-10-17T01:22:54;100276.16;;;7.36;81.70
55373;BME280;41249;47.838;16.490;2022-10-17T01:28:45;100269.13;;;7.39;83.25
55373;BME280;41249;47.838;16.490;2022-10-17T01:31:22;100263.66;;;7.42;82.37
55373;BME280;41249;47.838;16.490;2022-10-17T01:34:13;100266.63;;;7.49;83.02
55373;BME280;41249;47.838;16.490;2022-10-17T01:36:49;100263.97;;;7.53;82.87
55373;BME280;41249;47.838;16.490;2022-10-17T01:47:26;100266.50;;;7.30;83.66
55373;BME280;41249;47.838;16.490;2022-10-17T01:50:00;100275.03;;;7.25;83.60
55373;BME280;41249;47.838;16.490;2022-10-17T01:52:34;100267.13;;;7.23;83.70
55373;BME280;41249;47.838;16.490;2022-10-17T01:55:07;100273.34;;;7.20;83.71
55373;BME280;41249;47.838;16.490;2022-10-17T01:57:38;100268.44;;;7.14;83.47
55373;BME280;41249;47.838;16.490;2022-10-17T02:00:10;100265.91;;;7.09;84.35
55373;BME280;41249;47.838;16.490;2022-10-17T02:02:40;100268.44;;;7.02;83.78
55373;BME280;41249;47.838;16.490;2022-10-17T02:05:08;100277.34;;;6.95;84.51
55373;BME280;41249;47.838;16.490;2022-10-17T02:07:35;100272.50;;;6.92;85.09
55373;BME280;41249;47.838;16.490;2022-10-17T02:10:03;100271.00;;;6.95;85.34
55373;BME280;41249;47.838;16.490;2022-10-17T02:12:50;100280.44;;;6.94;85.05
55373;BME280;41249;47.838;16.490;2022-10-17T02:15:27;100268.84;;;6.88;84.25
55373;BME280;41249;47.838;16.490;2022-10-17T02:20:48;100282.72;;;6.92;85.59
55373;BME280;41249;47.838;16.490;2022-10-17T02:23:26;100280.22;;;6.99;85.82
55373;BME280;41249;47.838;16.490;2022-10-17T02:26:13;100282.25;;;7.02;85.58
55373;BME280;41249;47.838;16.490;2022-10-17T02:28:43;100292.28;;;6.94;84.85
55373;BME280;41249;47.838;16.490;2022-10-17T02:31:16;100288.06;;;6.85;85.38
55373;BME280;41249;47.838;16.490;2022-10-17T02:33:50;100285.53;;;6.80;86.11
55373;BME280;41249;47.838;16.490;2022-10-17T02:36:22;100278.41;;;6.79;85.76
55373;BME280;41249;47.838;16.490;2022-10-17T02:38:53;100286.78;;;6.82;85.55
55373;BME280;41249;47.838;16.490;2022-10-17T02:41:21;100283.94;;;6.79;86.09
55373;BME280;41249;47.838;16.490;2022-10-17T02:43:51;100283.00;;;6.75;85.44
55373;BME280;41249;47.838;16.490;2022-10-17T02:46:20;100281.88;;;6.76;86.14
55373;BME280;41249;47.838;16.490;2022-10-17T02:49:19;100286.59;;;6.75;85.63
55373;BME280;41249;47.838;16.490;2022-10-17T02:52:10;100289.78;;;6.77;86.30
55373;BME280;41249;47.838;16.490;2022-10-17T02:54:46;100283.81;;;6.75;85.85
55373;BME280;41249;47.838;16.490;2022-10-17T02:57:21;100278.09;;;6.68;85.71
55373;BME280;41249;47.838;16.490;2022-10-17T02:59:50;100289.59;;;6.70;86.09
55373;BME280;41249;47.838;16.490;2022-10-17T03:02:17;100292.22;;;6.79;86.35
55373;BME280;41249;47.838;16.490;2022-10-17T03:04:45;100291.06;;;6.80;86.52
55373;BME280;41249;47.838;16.490;2022-10-17T03:07:12;100289.47;;;6.79;86.21
55373;BME280;41249;47.838;16.490;2022-10-17T03:09:39;100293.34;;;6.78;86.27
55373;BME280;41249;47.838;16.490;2022-10-17T03:12:05;100293.47;;;6.81;85.94
55373;BME280;41249;47.838;16.490;2022-10-17T03:14:32;100286.78;;;6.82;87.12
55373;BME280;41249;47.838;16.490;2022-10-17T03:16:58;100299.78;;;6.82;86.88
55373;BME280;41249;47.838;16.490;2022-10-17T03:19:25;100291.06;;;6.80;86.81
55373;BME280;41249;47.838;16.490;2022-10-17T03:21:51;100301.41;;;6.83;86.37
55373;BME280;41249;47.838;16.490;2022-10-17T03:24:18;100301.03;;;6.84;86.19
55373;BME280;41249;47.838;16.490;2022-10-17T03:26:45;100298.44;;;6.76;86.52
55373;BME280;41249;47.838;16.490;2022-10-17T03:29:16;100312.31;;;6.67;86.42
55373;BME280;41249;47.838;16.490;2022-10-17T03:31:43;100323.25;;;6.63;86.85
55373;BME280;41249;47.838;16.490;2022-10-17T03:34:09;100326.34;;;6.62;86.32
55373;BME280;41249;47.838;16.490;2022-10-17T03:36:36;100320.81;;;6.62;86.76
55373;BME280;41249;47.838;16.490;2022-10-17T03:39:02;100319.56;;;6.59;86.67
55373;BME280;41249;47.838;16.490;2022-10-17T03:41:29;100318.22;;;6.53;86.93
55373;BME280;41249;47.838;16.490;2022-10-17T03:43:56;100311.75;;;6.49;87.14
55373;BME280;41249;47.838;16.490;2022-10-17T03:46:22;100312.69;;;6.53;86.97
55373;BME280;41249;47.838;16.490;2022-10-17T03:48:49;100308.44;;;6.68;87.84
55373;BME280;41249;47.838;16.490;2022-10-17T03:51:15;100321.06;;;6.81;88.06
55373;BME280;41249;47.838;16.490;2022-10-17T03:53:42;100319.78;;;6.91;87.23
55373;BME280;41249;47.838;16.490;2022-10-17T03:56:20;100320.69;;;6.95;87.89
55373;BME280;41249;47.838;16.490;2022-10-17T03:58:47;100330.03;;;6.90;87.85
55373;BME280;41249;47.838;16.490;2022-10-17T04:01:15;100332.22;;;6.85;87.10
55373;BME280;41249;47.838;16.490;2022-10-17T04:03:43;100336.38;;;6.79;87.21
55373;BME280;41249;47.838;16.490;2022-10-17T04:06:11;100342.59;;;6.76;87.13
55373;BME280;41249;47.838;16.490;2022-10-17T04:08:38;100337.97;;;6.68;87.16
55373;BME280;41249;47.838;16.490;2022-10-17T04:11:06;100340.03;;;6.58;86.58
55373;BME280;41249;47.838;16.490;2022-10-17T04:13:34;100346.03;;;6.48;87.13
55373;BME280;41249;47.838;16.490;2022-10-17T04:16:03;100353.72;;;6.43;86.77
55373;BME280;41249;47.838;16.490;2022-10-17T04:18:31;100352.00;;;6.38;86.91
55373;BME280;41249;47.838;16.490;2022-10-17T04:21:00;100350.38;;;6.37;87.29
55373;BME280;41249;47.838;16.490;2022-10-17T04:23:27;100352.22;;;6.33;87.76
55373;BME280;41249;47.838;16.490;2022-10-17T04:25:57;100353.13;;;6.37;87.76
55373;BME280;41249;47.838;16.490;2022-10-17T04:28:25;100352.00;;;6.38;87.58
55373;BME280;41249;47.838;16.490;2022-10-17T04:31:09;100359.91;;;6.40;87.89
55373;BME280;41249;47.838;16.490;2022-10-17T04:33:37;100352.44;;;6.40;88.09
55373;BME280;41249;47.838;16.490;2022-10-17T04:36:06;100360.28;;;6.38;87.70
55373;BME280;41249;47.838;16.490;2022-10-17T04:38:33;100365.34;;;6.36;86.67
55373;BME280;41249;47.838;16.490;2022-10-17T04:41:01;100355.78;;;6.34;87.25
55373;BME280;41249;47.838;16.490;2022-10-17T04:43:30;100369.44;;;6.30;87.32
55373;BME280;41249;47.838;16.490;2022-10-17T04:46:01;100366.22;;;6.28;87.30
55373;BME280;41249;47.838;16.490;2022-10-17T04:48:28;100366.09;;;6.25;87.42
55373;BME280;41249;47.838;16.490;2022-10-17T04:51:00;100370.47;;;6.26;87.58
55373;BME280;41249;47.838;16.490;2022-10-17T04:53:27;100372.19;;;6.30;87.44
55373;BME280;41249;47.838;16.490;2022-10-17T04:55:56;100372.19;;;6.30;87.55
55373;BME280;41249;47.838;16.490;2022-10-17T04:58:23;100365.19;;;6.33;87.68
55373;BME280;41249;47.838;16.490;2022-10-17T05:00:49;100371.53;;;6.33;87.38
55373;BME280;41249;47.838;16.490;2022-10-17T05:03:16;100368.31;;;6.31;87.61
55373;BME280;41249;47.838;16.490;2022-10-17T05:05:43;100371.28;;;6.26;87.57
55373;BME280;41249;47.838;16.490;2022-10-17T05:08:10;100373.47;;;6.21;87.18
55373;BME280;41249;47.838;16.490;2022-10-17T05:10:38;100374.50;;;6.16;88.08
55373;BME280;41249;47.838;16.490;2022-10-17T05:13:05;100378.84;;;6.17;87.48
55373;BME280;41249;47.838;16.490;2022-10-17T05:15:32;100375.63;;;6.15;87.84
55373;BME280;41249;47.838;16.490;2022-10-17T05:17:59;100386.44;;;6.20;87.95
55373;BME280;41249;47.838;16.490;2022-10-17T05:20:26;100383.00;;;6.23;87.40
55373;BME280;41249;47.838;16.490;2022-10-17T05:22:53;100382.09;;;6.19;88.01
55373;BME280;41249;47.838;16.490;2022-10-17T05:25:20;100387.25;;;6.21;87.48
55373;BME280;41249;47.838;16.490;2022-10-17T05:27:47;100390.13;;;6.24;87.74
55373;BME280;41249;47.838;16.490;2022-10-17T05:30:13;100381.16;;;6.27;87.37
55373;BME280;41249;47.838;16.490;2022-10-17T05:32:40;100393.13;;;6.31;87.02
55373;BME280;41249;47.838;16.490;2022-10-17T05:35:06;100394.25;;;6.30;87.08
55373;BME280;41249;47.838;16.490;2022-10-17T05:37:33;100398.28;;;6.33;87.18
55373;BME280;41249;47.838;16.490;2022-10-17T05:40:00;100407.47;;;6.37;87.80
55373;BME280;41249;47.838;16.490;2022-10-17T05:42:27;100412.66;;;6.38;87.48
55373;BME280;41249;47.838;16.490;2022-10-17T05:44:54;100425.78;;;6.41;87.23
55373;BME280;41249;47.838;16.490;2022-10-17T05:47:20;100430.13;;;6.42;87.52
55373;BME280;41249;47.838;16.490;2022-10-17T05:49:47;100426.25;;;6.43;86.90
55373;BME280;41249;47.838;16.490;2022-10-17T05:52:17;100435.78;;;6.46;86.65
55373;BME280;41249;47.838;16.490;2022-10-17T05:54:44;100432.66;;;6.47;87.34
55373;BME280;41249;47.838;16.490;2022-10-17T05:57:11;100450.38;;;6.46;86.87
55373;BME280;41249;47.838;16.490;2022-10-17T05:59:37;100441.63;;;6.44;87.33
55373;BME280;41249;47.838;16.490;2022-10-17T06:02:04;100448.75;;;6.45;86.78
55373;BME280;41249;47.838;16.490;2022-10-17T06:04:31;100448.91;;;6.49;86.68
55373;BME280;41249;47.838;16.490;2022-10-17T06:06:57;100460.25;;;6.59;86.26
55373;BME280;41249;47.838;16.490;2022-10-17T06:09:24;100452.25;;;6.67;86.42
55373;BME280;41249;47.838;16.490;2022-10-17T06:11:51;100458.81;;;6.74;86.11
55373;BME280;41249;47.838;16.490;2022-10-17T06:14:17;100462.84;;;6.77;86.02
55373;BME280;41249;47.838;16.490;2022-10-17T06:16:44;100460.88;;;6.77;85.44
55373;BME280;41249;47.838;16.490;2022-10-17T06:19:10;100469.06;;;6.86;86.27
55373;BME280;41249;47.838;16.490;2022-10-17T06:21:37;100466.09;;;6.91;86.16
55373;BME280;41249;47.838;16.490;2022-10-17T06:24:04;100470.13;;;6.93;85.61
55373;BME280;41249;47.838;16.490;2022-10-17T06:26:31;100473.69;;;6.94;85.08
55373;BME280;41249;47.838;16.490;2022-10-17T06:28:57;100475.28;;;6.95;85.64
55373;BME280;41249;47.838;16.490;2022-10-17T06:31:24;100481.47;;;6.92;85.37
55373;BME280;41249;47.838;16.490;2022-10-17T06:33:51;100481.59;;;6.95;85.04
55373;BME280;41249;47.838;16.490;2022-10-17T06:36:18;100491.16;;;6.98;85.08
55373;BME280;41249;47.838;16.490;2022-10-17T06:38:44;100490.69;;;7.08;84.54
55373;BME280;41249;47.838;16.490;2022-10-17T06:41:12;100489.31;;;7.14;84.81
55373;BME280;41249;47.838;16.490;2022-10-17T06:43:44;100484.03;;;7.21;85.06
55373;BME280;41249;47.838;16.490;2022-10-17T06:46:16;100484.34;;;7.32;84.00
55373;BME280;41249;47.838;16.490;2022-10-17T06:48:43;100499.41;;;7.46;83.68
55373;BME280;41249;47.838;16.490;2022-10-17T06:51:11;100499.00;;;7.72;83.38
55373;BME280;41249;47.838;16.490;2022-10-17T06:53:38;100509.19;;;7.96;83.21
55373;BME280;41249;47.838;16.490;2022-10-17T06:56:06;100508.38;;;8.07;81.99
55373;BME280;41249;47.838;16.490;2022-10-17T06:58:35;100509.56;;;8.22;81.96
55373;BME280;41249;47.838;16.490;2022-10-17T07:01:06;100511.63;;;8.25;81.82
55373;BME280;41249;47.838;16.490;2022-10-17T07:03:34;100518.97;;;8.33;81.75
55373;BME280;41249;47.838;16.490;2022-10-17T07:06:02;100517.41;;;8.20;81.95
55373;BME280;41249;47.838;16.490;2022-10-17T07:08:28;100518.13;;;8.17;81.92
55373;BME280;41249;47.838;16.490;2022-10-17T07:10:55;100514.94;;;8.03;81.54
55373;BME280;41249;47.838;16.490;2022-10-17T07:13:22;100516.56;;;7.91;81.86
55373;BME280;41249;47.838;16.490;2022-10-17T07:15:49;100520.75;;;7.85;81.89
55373;BME280;41249;47.838;16.490;2022-10-17T07:18:16;100522.34;;;7.86;82.37
55373;BME280;41249;47.838;16.490;2022-10-17T07:20:42;100529.50;;;7.87;81.90
55373;BME280;41249;47.838;16.490;2022-10-17T07:23:09;100524.63;;;8.09;81.82
55373;BME280;41249;47.838;16.490;2022-10-17T07:25:36;100527.41;;;8.24;81.70
55373;BME280;41249;47.838;16.490;2022-10-17T07:28:05;100522.38;;;8.42;81.29
55373;BME280;41249;47.838;16.490;2022-10-17T07:30:32;100529.22;;;8.60;80.73
55373;BME280;41249;47.838;16.490;2022-10-17T07:32:58;100531.75;;;8.81;80.28
55373;BME280;41249;47.838;16.490;2022-10-17T07:35:25;100528.19;;;8.96;79.89
55373;BME280;41249;47.838;16.490;2022-10-17T07:37:52;100532.25;;;8.86;80.01
55373;BME280;41249;47.838;16.490;2022-10-17T07:40:18;100542.63;;;8.89;80.03
55373;BME280;41249;47.838;16.490;2022-10-17T07:42:45;100545.78;;;9.03;79.61
55373;BME280;41249;47.838;16.490;2022-10-17T07:45:12;100537.00;;;9.01;79.42
55373;BME280;41249;47.838;16.490;2022-10-17T07:47:38;100533.53;;;9.04;79.47
55373;BME280;41249;47.838;16.490;2022-10-17T07:50:05;100540.31;;;9.07;79.51
55373;BME280;41249;47.838;16.490;2022-10-17T07:52:32;100538.69;;;9.21;79.35
55373;BME280;41249;47.838;16.490;2022-10-17T07:54:58;100543.91;;;9.39;79.31
55373;BME280;41249;47.838;16.490;2022-10-17T07:57:25;100542.47;;;9.45;78.95
55373;BME280;41249;47.838;16.490;2022-10-17T07:59:52;100549.34;;;9.51;78.57
55373;BME280;41249;47.838;16.490;2022-10-17T08:02:24;100548.06;;;9.64;78.43
55373;BME280;41249;47.838;16.490;2022-10-17T08:04:51;100540.06;;;9.78;78.19
55373;BME280;41249;47.838;16.490;2022-10-17T08:07:18;100541.78;;;10.02;78.09
55373;BME280;41249;47.838;16.490;2022-10-17T08:09:52;100545.34;;;10.21;77.76
55373;BME280;41249;47.838;16.490;2022-10-17T08:12:18;100549.16;;;10.32;77.37
55373;BME280;41249;47.838;16.490;2022-10-17T08:14:45;100553.44;;;10.45;77.11
55373;BME280;41249;47.838;16.490;2022-10-17T08:17:13;100551.44;;;10.65;77.23
55373;BME280;41249;47.838;16.490;2022-10-17T08:19:40;100556.00;;;10.77;76.79
55373;BME280;41249;47.838;16.490;2022-10-17T08:22:06;100542.19;;;10.80;76.70
55373;BME280;41249;47.838;16.490;2022-10-17T08:24:33;100552.50;;;10.80;76.70
55373;BME280;41249;47.838;16.490;2022-10-17T08:27:00;100546.63;;;10.85;76.09
55373;BME280;41249;47.838;16.490;2022-10-17T08:29:27;100551.81;;;10.86;76.31
55373;BME280;41249;47.838;16.490;2022-10-17T08:31:53;100554.28;;;10.91;76.21
55373;BME280;41249;47.838;16.490;2022-10-17T08:34:27;100552.34;;;11.18;76.19
55373;BME280;41249;47.838;16.490;2022-10-17T08:36:53;100562.41;;;11.26;75.74
55373;BME280;41249;47.838;16.490;2022-10-17T08:39:20;100560.31;;;11.42;75.53
55373;BME280;41249;47.838;16.490;2022-10-17T08:44:52;100551.91;;;11.91;74.03
55373;BME280;41249;47.838;16.490;2022-10-17T08:47:27;100555.44;;;12.18;74.06
55373;BME280;41249;47.838;16.490;2022-10-17T08:50:01;100556.47;;;12.36;73.64
55373;BME280;41249;47.838;16.490;2022-10-17T08:55:07;100552.69;;;12.88;72.57
55373;BME280;41249;47.838;16.490;2022-10-17T08:57:38;100549.28;;;13.05;71.70
55373;BME280;41249;47.838;16.490;2022-10-17T09:00:14;100547.44;;;13.20;71.74
55373;BME280;41249;47.838;16.490;2022-10-17T09:05:40;100552.22;;;13.70;70.53
55373;BME280;41249;47.838;16.490;2022-10-17T09:14:22;100546.28;;;14.65;68.49
55373;BME280;41249;47.838;16.490;2022-10-17T09:19:47;100557.16;;;15.19;67.03
55373;BME280;41249;47.838;16.490;2022-10-17T09:22:22;100572.00;;;15.34;65.70
55373;BME280;41249;47.838;16.490;2022-10-17T09:24:55;100562.00;;;15.43;64.21
55373;BME280;41249;47.838;16.490;2022-10-17T09:27:25;100563.97;;;15.75;64.81
55373;BME280;41249;47.838;16.490;2022-10-17T09:30:13;100570.34;;;15.93;63.94
55373;BME280;41249;47.838;16.490;2022-10-17T09:32:58;100571.13;;;16.00;62.20
55373;BME280;41249;47.838;16.490;2022-10-17T09:35:26;100574.72;;;16.08;62.46
55373;BME280;41249;47.838;16.490;2022-10-17T09:37:53;100563.06;;;16.27;61.70
55373;BME280;41249;47.838;16.490;2022-10-17T09:40:25;100573.84;;;16.36;61.59
55373;BME280;41249;47.838;16.490;2022-10-17T09:42:52;100571.81;;;16.43;61.18
55373;BME280;41249;47.838;16.490;2022-10-17T09:45:21;100570.56;;;16.51;60.74
55373;BME280;41249;47.838;16.490;2022-10-17T09:48:01;100567.78;;;16.48;60.11
55373;BME280;41249;47.838;16.490;2022-10-17T09:50:34;100571.69;;;16.64;59.96
55373;BME280;41249;47.838;16.490;2022-10-17T09:53:28;100562.38;;;16.89;59.45
55373;BME280;41249;47.838;16.490;2022-10-17T09:56:01;100573.88;;;17.05;58.88
55373;BME280;41249;47.838;16.490;2022-10-17T09:58:49;100575.03;;;17.14;59.06
55373;BME280;41249;47.838;16.490;2022-10-17T10:01:22;100568.16;;;17.22;58.14
55373;BME280;41249;47.838;16.490;2022-10-17T10:04:09;100567.66;;;17.34;57.73
55373;BME280;41249;47.838;16.490;2022-10-17T10:06:38;100567.94;;;17.47;56.92
55373;BME280;41249;47.838;16.490;2022-10-17T10:09:19;100572.22;;;17.66;57.17
55373;BME280;41249;47.838;16.490;2022-10-17T10:11:54;100568.41;;;17.86;56.82
55373;BME280;41249;47.838;16.490;2022-10-17T10:14:34;100567.94;;;17.91;56.51
55373;BME280;41249;47.838;16.490;2022-10-17T10:17:03;100581.25;;;17.87;55.87
55373;BME280;41249;47.838;16.490;2022-10-17T10:19:32;100574.78;;;17.90;55.81
55373;BME280;41249;47.838;16.490;2022-10-17T10:22:01;100574.78;;;17.90;55.29
55373;BME280;41249;47.838;16.490;2022-10-17T10:24:28;100573.88;;;18.00;54.79
55373;BME280;41249;47.838;16.490;2022-10-17T10:26:59;100571.00;;;18.07;54.83
55373;BME280;41249;47.838;16.490;2022-10-17T10:32:09;100580.72;;;18.37;54.30
55373;BME280;41249;47.838;16.490;2022-10-17T10:34:44;100576.97;;;18.47;54.12
55373;BME280;41249;47.838;16.490;2022-10-17T10:39:56;100568.44;;;18.54;53.67
55373;BME280;41249;47.838;16.490;2022-10-17T10:42:29;100567.03;;;18.69;53.19
55373;BME280;41249;47.838;16.490;2022-10-17T10:45:48;100570.97;;;18.75;53.21
55373;BME280;41249;47.838;16.490;2022-10-17T10:48:28;100571.34;;;18.77;53.19
55373;BME280;41249;47.838;16.490;2022-10-17T10:51:03;100557.38;;;18.97;52.90
55373;BME280;41249;47.838;16.490;2022-10-17T10:54:02;100556.28;;;18.91;50.49
55373;BME280;41249;47.838;16.490;2022-10-17T10:56:40;100550.16;;;18.96;52.15
55373;BME280;41249;47.838;16.490;2022-10-17T10:59:11;100548.38;;;19.09;52.22
55373;BME280;41249;47.838;16.490;2022-10-17T11:07:58;100557.78;;;19.25;50.36
55373;BME280;41249;47.838;16.490;2022-10-17T11:10:46;100560.16;;;19.27;50.81
55373;BME280;41249;47.838;16.490;2022-10-17T11:13:23;100560.00;;;19.38;50.36
55373;BME280;41249;47.838;16.490;2022-10-17T11:24:24;100549.63;;;19.31;49.75
55373;BME280;41249;47.838;16.490;2022-10-17T11:27:02;100550.06;;;19.29;50.08
55373;BME280;41249;47.838;16.490;2022-10-17T11:29:33;100563.22;;;19.36;49.47
55373;BME280;41249;47.838;16.490;2022-10-17T11:34:45;100550.19;;;19.46;49.65
55373;BME280;41249;47.838;16.490;2022-10-17T11:37:19;100550.91;;;19.26;48.83
55373;BME280;41249;47.838;16.490;2022-10-17T11:40:04;100545.94;;;19.11;48.88
55373;BME280;41249;47.838;16.490;2022-10-17T11:42:41;100546.22;;;19.20;49.03
55373;BME280;41249;47.838;16.490;2022-10-17T11:45:17;100539.16;;;19.31;48.90
55373;BME280;41249;47.838;16.490;2022-10-17T11:47:49;100537.69;;;19.23;48.21
55373;BME280;41249;47.838;16.490;2022-10-17T11:50:29;100538.94;;;19.22;48.72
55373;BME280;41249;47.838;16.490;2022-10-17T11:53:26;100542.34;;;19.33;48.01
55373;BME280;41249;47.838;16.490;2022-10-17T11:55:57;100544.31;;;19.37;47.92
55373;BME280;41249;47.838;16.490;2022-10-17T11:58:34;100546.28;;;19.40;48.34
55373;BME280;41249;47.838;16.490;2022-10-17T12:01:17;100545.47;;;19.39;47.91
55373;BME280;41249;47.838;16.490;2022-10-17T12:09:53;100541.75;;;19.22;47.88
55373;BME280;41249;47.838;16.490;2022-10-17T12:12:25;100536.84;;;19.26;47.11
55373;BME280;41249;47.838;16.490;2022-10-17T12:14:53;100529.03;;;19.38;47.47
55373;BME280;41249;47.838;16.490;2022-10-17T12:17:32;100528.53;;;19.43;47.32
55373;BME280;41249;47.838;16.490;2022-10-17T12:22:54;100534.88;;;19.47;47.37
55373;BME280;41249;47.838;16.490;2022-10-17T12:25:25;100532.81;;;19.27;46.77
55373;BME280;41249;47.838;16.490;2022-10-17T12:28:04;100517.22;;;19.23;47.04
55373;BME280;41249;47.838;16.490;2022-10-17T12:30:35;100524.78;;;19.26;47.21
55373;BME280;41249;47.838;16.490;2022-10-17T12:35:51;100520.66;;;19.07;46.68
55373;BME280;41249;47.838;16.490;2022-10-17T12:38:36;100517.03;;;19.07;46.47
55373;BME280;41249;47.838;16.490;2022-10-17T12:41:04;100523.50;;;19.04;46.41
55373;BME280;41249;47.838;16.490;2022-10-17T12:43:35;100513.88;;;19.01;46.44
55373;BME280;41249;47.838;16.490;2022-10-17T12:46:07;100517.78;;;19.11;46.33
55373;BME280;41249;47.838;16.490;2022-10-17T12:51:12;100518.25;;;19.06;45.31
55373;BME280;41249;47.838;16.490;2022-10-17T12:54:05;100519.88;;;19.03;46.17
55373;BME280;41249;47.838;16.490;2022-10-17T12:59:08;100510.50;;;19.13;46.28
55373;BME280;41249;47.838;16.490;2022-10-17T13:01:38;100521.06;;;19.06;45.61
55373;BME280;41249;47.838;16.490;2022-10-17T13:04:08;100508.25;;;19.01;46.32
55373;BME280;41249;47.838;16.490;2022-10-17T13:06:42;100514.66;;;19.05;45.88
55373;BME280;41249;47.838;16.490;2022-10-17T13:11:55;100508.34;;;18.98;45.85
55373;BME280;41249;47.838;16.490;2022-10-17T13:14:24;100513.97;;;18.98;46.04
55373;BME280;41249;47.838;16.490;2022-10-17T13:17:00;100503.47;;;18.98;46.17
55373;BME280;41249;47.838;16.490;2022-10-17T13:22:16;100504.47;;;18.88;45.86
55373;BME280;41249;47.838;16.490;2022-10-17T13:24:43;100505.00;;;18.80;45.94
55373;BME280;41249;47.838;16.490;2022-10-17T13:27:28;100504.75;;;18.70;46.67
55373;BME280;41249;47.838;16.490;2022-10-17T13:29:56;100498.47;;;18.59;46.48
55373;BME280;41249;47.838;16.490;2022-10-17T13:32:25;100493.75;;;18.53;46.62
55373;BME280;41249;47.838;16.490;2022-10-17T13:35:10;100497.91;;;18.41;46.83
55373;BME280;41249;47.838;16.490;2022-10-17T13:37:39;100498.31;;;18.43;46.47
55373;BME280;41249;47.838;16.490;2022-10-17T13:40:14;100504.22;;;18.49;46.76
55373;BME280;41249;47.838;16.490;2022-10-17T13:43:01;100492.13;;;18.52;46.55
55373;BME280;41249;47.838;16.490;2022-10-17T13:45:32;100497.88;;;18.45;46.90
55373;BME280;41249;47.838;16.490;2022-10-17T13:48:02;100494.34;;;18.37;47.00
55373;BME280;41249;47.838;16.490;2022-10-17T13:53:19;100495.56;;;18.36;47.02
55373;BME280;41249;47.838;16.490;2022-10-17T13:58:50;100504.13;;;18.26;46.32
55373;BME280;41249;47.838;16.490;2022-10-17T14:01:18;100502.16;;;18.23;46.34
55373;BME280;41249;47.838;16.490;2022-10-17T14:03:46;100502.28;;;18.12;46.35
55373;BME280;41249;47.838;16.490;2022-10-17T14:06:23;100513.56;;;18.08;46.62
55373;BME280;41249;47.838;16.490;2022-10-17T14:11:39;100508.03;;;18.01;46.32
55373;BME280;41249;47.838;16.490;2022-10-17T14:14:18;100512.16;;;17.93;46.87
55373;BME280;41249;47.838;16.490;2022-10-17T14:16:45;100510.63;;;17.85;46.81
55373;BME280;41249;47.838;16.490;2022-10-17T14:19:33;100511.47;;;17.82;46.62
55373;BME280;41249;47.838;16.490;2022-10-17T14:24:47;100505.25;;;17.61;47.17
55373;BME280;41249;47.838;16.490;2022-10-17T14:27:37;100510.22;;;17.46;46.95
55373;BME280;41249;47.838;16.490;2022-10-17T14:30:31;100510.72;;;17.34;47.45
55373;BME280;41249;47.838;16.490;2022-10-17T14:33:25;100518.38;;;17.26;47.38
55373;BME280;41249;47.838;16.490;2022-10-17T14:35:56;100520.47;;;17.19;47.56
55373;BME280;41249;47.838;16.490;2022-10-17T14:38:28;100520.13;;;17.13;47.48
55373;BME280;41249;47.838;16.490;2022-10-17T14:44:07;100521.06;;;16.93;47.43
55373;BME280;41249;47.838;16.490;2022-10-17T14:46:43;100512.31;;;16.83;47.93